Kawasaki, Japan
Current Conditions -  °F | °C
As of 9:00 AM on Monday 24 Nov 2014 (Local Time) from RJTT Reporting Station
Broken Clouds Broken Clouds  
Wind Chill: 13°   Ceiling: 3500
Heat Index: 13°   Visibility: 6mi
Dew Point:   Wind: 9mph
Humidity: 67%   Direction: 350°N
Pressure: 30.24"   Gusts: NA
Location:  35.53°N, 139.7°E
Report Text: RJTT 240000Z 35008KT 9999 BKN035 13/07 Q1024 NOSIG RMK 7SC035 A3024
Loading
Personal Weather Stations






























Interactive Weather Map New forecast layout! Learn more

10-Day Weather Forecast

Advertisements
Track Severe Weather on mobile